Weather at Alta Vista Airport [CLOSED]

Public forecast

Using degrees Fahrenheit for public forecast. Weather courtesy of forecast.io.

Closest aviation weather report (METAR) to Alta Vista Airport

Closest report is Perot Field/Fort Worth Alliance Airport, 5.8 nm (10.7 km) NNW.

2024/07/19 08:53 (retrieved 14 minutes ago)

KAFW 190853Z 11006KT 10SM SCT250 26/21 A3006 RMK AO2 SLP164 T02560206 58001

Closest aviation forecast (TAF) to Alta Vista Airport

Closest forecast is Perot Field/Fort Worth Alliance Airport, 5.8 nm (10.7 km) NNW.

2024/07/19 09:52 Ammendment (retrieved 0 seconds ago)

TAF AMD KAFW 190850Z 1909/2006 07007KT P6SM FEW050 SCT250 FM200100 13006KT P6SM FEW250